This is the latest recevied weather packets stored in our database for station/object VA7SCH-13. If no packets are shown the sender has not sent any weather packets the latest 10 day(s).
| Time | Temp. | Humidity | Pressure | Rain* | Wind** | Luminosity | Snow |
|---|---|---|---|---|---|---|---|
| 1777548934 | 7.78° C | 72% | 1026 hPa | 0 mm | - | - | - |
| 1777545334 | 7.78° C | 70% | 1026.1 hPa | 0 mm | - | - | - |
| 1777541133 | 9.44° C | 64% | 1026.3 hPa | 0 mm | - | - | - |
| 1777536934 | 10.56° C | 61% | 1026.2 hPa | 0 mm | - | - | - |
| 1777535731 | 10.56° C | 62% | 1026.1 hPa | 0 mm | - | - | - |
| 1777532154 | 11.67° C | 58% | 1026.1 hPa | 0 mm | - | - | - |
| 1777526730 | 12.78° C | 55% | 1024.8 hPa | 0 mm | - | - | - |
| 1777524929 | 13.33° C | 54% | 1024.5 hPa | 0 mm | - | - | - |
| 1777522529 | 13.33° C | 55% | 1024.4 hPa | 0 mm | - | - | - |
| 1777521929 | 13.33° C | 56% | 1024.2 hPa | 0 mm | - | - | - |
| 1777519529 | 14.44° C | 55% | 1024 hPa | 0 mm | - | - | - |
| 1777517729 | 15.56° C | 52% | 1023.8 hPa | 0 mm | - | - | - |
| 1777516529 | 16.67° C | 48% | 1023.9 hPa | 0 mm | - | - | - |
| 1777515928 | 17.78° C | 44% | 1024.2 hPa | 0 mm | - | - | - |
| 1777515329 | 18.33° C | 41% | 1023.9 hPa | 0 mm | - | - | - |
| 1777512328 | 20.56° C | 36% | 1024.2 hPa | 0 mm | - | - | - |
| 1777504528 | 20.56° C | 36% | 1024.4 hPa | 0 mm | - | - | - |
| 1777502728 | 20.56° C | 35% | 1024.5 hPa | 0 mm | - | - | - |
| 1777497948 | 20.56° C | 37% | 1024.8 hPa | 0 mm | - | - | - |
| 1777496746 | 21.11° C | 37% | 1025.8 hPa | 0 mm | - | - | - |
| 1777495528 | 19.44° C | 39% | 1025.7 hPa | 0 mm | - | - | - |
| 1777488927 | 17.22° C | 46% | 1027 hPa | 0 mm | - | - | - |
| 1777482328 | 15° C | 53% | 1027.2 hPa | 0 mm | - | - | - |
| 1777481128 | 14.44° C | 55% | 1028.1 hPa | 0 mm | - | - | - |
| 1777478126 | 13.33° C | 61% | 1028.3 hPa | 0 mm | - | - | - |
* Rain latest hour (hover to see other rain measurements)
** Current wind speed in m/s (hover to see current wind gust speed)